sensor_id;sensor_type;location;lat;lon;timestamp;P1;durP1;ratioP1;P2;durP2;ratioP2
8458;SDS011;4266;48.816;9.154;2022-07-22T00:01:57;7.77;;;7.07;;
8458;SDS011;4266;48.816;9.154;2022-07-22T00:04:23;8.70;;;7.85;;
8458;SDS011;4266;48.816;9.154;2022-07-22T00:06:49;8.40;;;7.70;;
8458;SDS011;4266;48.816;9.154;2022-07-22T00:09:14;8.20;;;7.50;;
8458;SDS011;4266;48.816;9.154;2022-07-22T00:11:41;8.67;;;7.30;;
8458;SDS011;4266;48.816;9.154;2022-07-22T00:14:06;8.63;;;7.43;;
8458;SDS011;4266;48.816;9.154;2022-07-22T00:16:32;10.53;;;8.13;;
8458;SDS011;4266;48.816;9.154;2022-07-22T00:18:58;8.60;;;7.80;;
8458;SDS011;4266;48.816;9.154;2022-07-22T00:21:23;7.80;;;7.20;;
8458;SDS011;4266;48.816;9.154;2022-07-22T00:23:49;8.43;;;7.53;;
8458;SDS011;4266;48.816;9.154;2022-07-22T00:26:15;10.90;;;8.07;;
8458;SDS011;4266;48.816;9.154;2022-07-22T00:28:40;8.50;;;7.60;;
8458;SDS011;4266;48.816;9.154;2022-07-22T00:31:06;8.17;;;7.57;;
8458;SDS011;4266;48.816;9.154;2022-07-22T00:33:31;8.43;;;7.73;;
8458;SDS011;4266;48.816;9.154;2022-07-22T00:35:57;9.60;;;7.87;;
8458;SDS011;4266;48.816;9.154;2022-07-22T00:38:22;8.73;;;8.03;;
8458;SDS011;4266;48.816;9.154;2022-07-22T00:40:48;8.30;;;7.60;;
8458;SDS011;4266;48.816;9.154;2022-07-22T00:43:14;11.17;;;7.60;;
8458;SDS011;4266;48.816;9.154;2022-07-22T00:45:39;8.50;;;7.60;;
8458;SDS011;4266;48.816;9.154;2022-07-22T00:48:05;9.10;;;8.27;;
8458;SDS011;4266;48.816;9.154;2022-07-22T00:50:31;8.90;;;8.00;;
8458;SDS011;4266;48.816;9.154;2022-07-22T00:52:57;8.23;;;7.53;;
8458;SDS011;4266;48.816;9.154;2022-07-22T00:55:23;8.97;;;8.27;;
8458;SDS011;4266;48.816;9.154;2022-07-22T00:57:48;8.87;;;7.60;;
8458;SDS011;4266;48.816;9.154;2022-07-22T01:00:17;8.83;;;8.00;;
8458;SDS011;4266;48.816;9.154;2022-07-22T01:02:40;8.47;;;7.77;;
8458;SDS011;4266;48.816;9.154;2022-07-22T01:05:06;8.57;;;7.87;;
8458;SDS011;4266;48.816;9.154;2022-07-22T01:07:32;8.83;;;8.00;;
8458;SDS011;4266;48.816;9.154;2022-07-22T01:09:58;8.43;;;7.73;;
8458;SDS011;4266;48.816;9.154;2022-07-22T01:12:25;9.57;;;8.63;;
8458;SDS011;4266;48.816;9.154;2022-07-22T01:14:50;8.13;;;7.53;;
8458;SDS011;4266;48.816;9.154;2022-07-22T01:17:16;9.27;;;7.73;;
8458;SDS011;4266;48.816;9.154;2022-07-22T01:19:42;8.77;;;7.87;;
8458;SDS011;4266;48.816;9.154;2022-07-22T01:22:09;9.20;;;8.30;;
8458;SDS011;4266;48.816;9.154;2022-07-22T01:24:34;8.57;;;7.87;;
8458;SDS011;4266;48.816;9.154;2022-07-22T01:27:00;10.73;;;8.37;;
8458;SDS011;4266;48.816;9.154;2022-07-22T01:29:25;10.37;;;8.23;;
8458;SDS011;4266;48.816;9.154;2022-07-22T01:31:51;8.77;;;8.07;;
8458;SDS011;4266;48.816;9.154;2022-07-22T01:34:17;8.47;;;7.77;;
8458;SDS011;4266;48.816;9.154;2022-07-22T01:36:42;10.57;;;8.13;;
8458;SDS011;4266;48.816;9.154;2022-07-22T01:39:08;9.03;;;8.23;;
8458;SDS011;4266;48.816;9.154;2022-07-22T01:41:33;9.57;;;8.70;;
8458;SDS011;4266;48.816;9.154;2022-07-22T01:43:59;10.83;;;8.90;;
8458;SDS011;4266;48.816;9.154;2022-07-22T01:46:26;10.10;;;9.17;;
8458;SDS011;4266;48.816;9.154;2022-07-22T01:48:51;9.53;;;8.53;;
8458;SDS011;4266;48.816;9.154;2022-07-22T01:51:17;9.47;;;8.63;;
8458;SDS011;4266;48.816;9.154;2022-07-22T01:53:43;9.60;;;8.83;;
8458;SDS011;4266;48.816;9.154;2022-07-22T01:56:08;9.67;;;8.87;;
8458;SDS011;4266;48.816;9.154;2022-07-22T01:58:34;8.53;;;7.83;;
8458;SDS011;4266;48.816;9.154;2022-07-22T02:01:00;9.00;;;8.20;;
8458;SDS011;4266;48.816;9.154;2022-07-22T02:03:26;10.67;;;8.67;;
8458;SDS011;4266;48.816;9.154;2022-07-22T02:05:52;9.13;;;8.20;;
8458;SDS011;4266;48.816;9.154;2022-07-22T02:08:18;9.10;;;8.30;;
8458;SDS011;4266;48.816;9.154;2022-07-22T02:10:44;9.17;;;8.37;;
8458;SDS011;4266;48.816;9.154;2022-07-22T02:13:10;9.07;;;8.33;;
8458;SDS011;4266;48.816;9.154;2022-07-22T02:15:35;10.80;;;9.00;;
8458;SDS011;4266;48.816;9.154;2022-07-22T02:20:34;10.07;;;9.20;;
8458;SDS011;4266;48.816;9.154;2022-07-22T02:22:59;10.20;;;9.20;;
8458;SDS011;4266;48.816;9.154;2022-07-22T02:25:26;10.83;;;9.83;;
8458;SDS011;4266;48.816;9.154;2022-07-22T02:27:51;9.83;;;9.13;;
8458;SDS011;4266;48.816;9.154;2022-07-22T02:30:18;11.87;;;9.83;;
8458;SDS011;4266;48.816;9.154;2022-07-22T02:32:43;10.50;;;9.60;;
8458;SDS011;4266;48.816;9.154;2022-07-22T02:35:09;10.43;;;9.37;;
8458;SDS011;4266;48.816;9.154;2022-07-22T02:37:35;11.17;;;9.17;;
8458;SDS011;4266;48.816;9.154;2022-07-22T02:40:02;13.13;;;10.53;;
8458;SDS011;4266;48.816;9.154;2022-07-22T02:42:29;9.60;;;8.70;;
8458;SDS011;4266;48.816;9.154;2022-07-22T02:44:55;9.77;;;8.97;;
8458;SDS011;4266;48.816;9.154;2022-07-22T02:47:20;12.47;;;9.47;;
8458;SDS011;4266;48.816;9.154;2022-07-22T02:49:46;10.30;;;9.30;;
8458;SDS011;4266;48.816;9.154;2022-07-22T02:52:12;10.43;;;9.50;;
8458;SDS011;4266;48.816;9.154;2022-07-22T02:54:38;12.97;;;10.63;;
8458;SDS011;4266;48.816;9.154;2022-07-22T02:57:04;11.53;;;10.47;;
8458;SDS011;4266;48.816;9.154;2022-07-22T02:59:30;12.43;;;10.23;;
8458;SDS011;4266;48.816;9.154;2022-07-22T03:01:56;11.17;;;10.03;;
8458;SDS011;4266;48.816;9.154;2022-07-22T03:04:21;12.13;;;11.03;;
8458;SDS011;4266;48.816;9.154;2022-07-22T03:06:47;11.10;;;10.20;;
8458;SDS011;4266;48.816;9.154;2022-07-22T03:09:12;12.10;;;11.00;;
8458;SDS011;4266;48.816;9.154;2022-07-22T03:11:38;12.67;;;11.40;;
8458;SDS011;4266;48.816;9.154;2022-07-22T03:14:04;10.83;;;9.83;;
8458;SDS011;4266;48.816;9.154;2022-07-22T03:16:30;14.43;;;11.13;;
8458;SDS011;4266;48.816;9.154;2022-07-22T03:18:56;12.47;;;11.33;;
8458;SDS011;4266;48.816;9.154;2022-07-22T03:21:22;13.30;;;11.73;;
8458;SDS011;4266;48.816;9.154;2022-07-22T03:23:48;12.87;;;11.60;;
8458;SDS011;4266;48.816;9.154;2022-07-22T03:26:13;20.30;;;12.67;;
8458;SDS011;4266;48.816;9.154;2022-07-22T03:28:39;13.40;;;12.00;;
8458;SDS011;4266;48.816;9.154;2022-07-22T03:31:05;12.77;;;11.63;;
8458;SDS011;4266;48.816;9.154;2022-07-22T03:33:30;12.60;;;11.50;;
8458;SDS011;4266;48.816;9.154;2022-07-22T03:35:56;12.67;;;11.50;;
8458;SDS011;4266;48.816;9.154;2022-07-22T03:38:22;12.40;;;11.20;;
8458;SDS011;4266;48.816;9.154;2022-07-22T03:40:47;15.33;;;11.60;;
8458;SDS011;4266;48.816;9.154;2022-07-22T03:43:13;12.13;;;11.00;;
8458;SDS011;4266;48.816;9.154;2022-07-22T03:45:38;13.17;;;11.83;;
8458;SDS011;4266;48.816;9.154;2022-07-22T03:48:04;13.33;;;11.93;;
8458;SDS011;4266;48.816;9.154;2022-07-22T03:50:30;13.07;;;11.77;;
8458;SDS011;4266;48.816;9.154;2022-07-22T03:52:56;13.40;;;12.13;;
8458;SDS011;4266;48.816;9.154;2022-07-22T03:55:22;13.67;;;12.27;;
8458;SDS011;4266;48.816;9.154;2022-07-22T03:57:48;12.80;;;11.70;;
8458;SDS011;4266;48.816;9.154;2022-07-22T04:00:13;12.60;;;11.50;;
8458;SDS011;4266;48.816;9.154;2022-07-22T04:02:40;12.43;;;11.23;;
8458;SDS011;4266;48.816;9.154;2022-07-22T04:05:06;13.10;;;11.90;;
8458;SDS011;4266;48.816;9.154;2022-07-22T04:07:32;13.50;;;12.10;;
8458;SDS011;4266;48.816;9.154;2022-07-22T04:09:57;12.23;;;11.03;;
8458;SDS011;4266;48.816;9.154;2022-07-22T04:12:23;12.90;;;11.60;;
8458;SDS011;4266;48.816;9.154;2022-07-22T04:14:49;13.10;;;11.80;;
8458;SDS011;4266;48.816;9.154;2022-07-22T04:17:14;13.53;;;10.70;;
8458;SDS011;4266;48.816;9.154;2022-07-22T04:19:40;13.43;;;12.27;;
8458;SDS011;4266;48.816;9.154;2022-07-22T04:22:06;12.50;;;11.30;;
8458;SDS011;4266;48.816;9.154;2022-07-22T04:24:31;12.70;;;11.50;;
8458;SDS011;4266;48.816;9.154;2022-07-22T04:26:57;13.33;;;10.53;;
8458;SDS011;4266;48.816;9.154;2022-07-22T04:29:22;12.37;;;11.07;;
8458;SDS011;4266;48.816;9.154;2022-07-22T04:31:48;12.40;;;11.13;;
8458;SDS011;4266;48.816;9.154;2022-07-22T04:34:14;12.87;;;11.57;;
8458;SDS011;4266;48.816;9.154;2022-07-22T04:36:39;13.30;;;12.00;;
8458;SDS011;4266;48.816;9.154;2022-07-22T04:39:05;12.00;;;10.80;;
8458;SDS011;4266;48.816;9.154;2022-07-22T04:41:31;12.73;;;11.43;;
8458;SDS011;4266;48.816;9.154;2022-07-22T04:43:56;12.50;;;11.30;;
8458;SDS011;4266;48.816;9.154;2022-07-22T04:46:23;12.47;;;11.17;;
8458;SDS011;4266;48.816;9.154;2022-07-22T04:48:49;11.90;;;10.80;;
8458;SDS011;4266;48.816;9.154;2022-07-22T04:51:15;12.70;;;11.50;;
8458;SDS011;4266;48.816;9.154;2022-07-22T04:53:40;12.40;;;11.17;;
8458;SDS011;4266;48.816;9.154;2022-07-22T04:56:06;12.60;;;10.57;;
8458;SDS011;4266;48.816;9.154;2022-07-22T04:58:32;12.33;;;11.03;;
8458;SDS011;4266;48.816;9.154;2022-07-22T05:00:58;11.77;;;10.75;;
8458;SDS011;4266;48.816;9.154;2022-07-22T05:03:24;13.10;;;11.70;;
8458;SDS011;4266;48.816;9.154;2022-07-22T05:05:50;11.90;;;10.67;;
8458;SDS011;4266;48.816;9.154;2022-07-22T05:08:15;11.50;;;10.40;;
8458;SDS011;4266;48.816;9.154;2022-07-22T05:10:41;11.33;;;10.23;;
8458;SDS011;4266;48.816;9.154;2022-07-22T05:13:07;12.55;;;11.00;;
8458;SDS011;4266;48.816;9.154;2022-07-22T05:15:32;11.70;;;10.57;;
8458;SDS011;4266;48.816;9.154;2022-07-22T05:17:58;12.00;;;10.80;;
8458;SDS011;4266;48.816;9.154;2022-07-22T05:20:24;11.65;;;10.55;;
8458;SDS011;4266;48.816;9.154;2022-07-22T05:22:49;11.82;;;10.77;;
8458;SDS011;4266;48.816;9.154;2022-07-22T05:25:15;12.45;;;11.15;;
8458;SDS011;4266;48.816;9.154;2022-07-22T05:30:14;11.32;;;10.00;;
8458;SDS011;4266;48.816;9.154;2022-07-22T05:32:39;12.18;;;11.07;;
8458;SDS011;4266;48.816;9.154;2022-07-22T05:35:05;11.70;;;10.70;;
8458;SDS011;4266;48.816;9.154;2022-07-22T05:37:32;14.48;;;10.57;;
8458;SDS011;4266;48.816;9.154;2022-07-22T05:39:58;11.70;;;10.48;;
8458;SDS011;4266;48.816;9.154;2022-07-22T05:42:23;11.98;;;10.68;;
8458;SDS011;4266;48.816;9.154;2022-07-22T05:44:49;12.95;;;10.27;;
8458;SDS011;4266;48.816;9.154;2022-07-22T05:47:15;11.05;;;10.07;;
8458;SDS011;4266;48.816;9.154;2022-07-22T05:49:41;10.60;;;9.55;;
8458;SDS011;4266;48.816;9.154;2022-07-22T05:52:07;10.15;;;9.23;;
8458;SDS011;4266;48.816;9.154;2022-07-22T05:54:32;13.07;;;9.88;;
8458;SDS011;4266;48.816;9.154;2022-07-22T05:56:58;10.82;;;9.82;;
8458;SDS011;4266;48.816;9.154;2022-07-22T05:59:23;10.43;;;9.52;;
8458;SDS011;4266;48.816;9.154;2022-07-22T06:01:49;10.70;;;9.70;;
8458;SDS011;4266;48.816;9.154;2022-07-22T06:04:15;11.10;;;10.05;;
8458;SDS011;4266;48.816;9.154;2022-07-22T06:06:40;12.02;;;9.68;;
8458;SDS011;4266;48.816;9.154;2022-07-22T06:09:06;10.65;;;9.75;;
8458;SDS011;4266;48.816;9.154;2022-07-22T06:11:32;10.65;;;9.75;;
8458;SDS011;4266;48.816;9.154;2022-07-22T06:13:57;10.68;;;9.77;;
8458;SDS011;4266;48.816;9.154;2022-07-22T06:16:23;10.93;;;9.90;;
8458;SDS011;4266;48.816;9.154;2022-07-22T06:18:49;9.70;;;8.80;;
8458;SDS011;4266;48.816;9.154;2022-07-22T06:21:15;10.15;;;9.13;;
8458;SDS011;4266;48.816;9.154;2022-07-22T06:23:41;9.77;;;8.88;;
8458;SDS011;4266;48.816;9.154;2022-07-22T06:26:06;10.35;;;9.45;;
8458;SDS011;4266;48.816;9.154;2022-07-22T06:28:32;9.70;;;8.80;;
8458;SDS011;4266;48.816;9.154;2022-07-22T06:30:57;9.63;;;8.82;;
8458;SDS011;4266;48.816;9.154;2022-07-22T06:33:23;12.85;;;9.32;;
8458;SDS011;4266;48.816;9.154;2022-07-22T06:35:49;9.57;;;8.77;;
8458;SDS011;4266;48.816;9.154;2022-07-22T06:38:14;9.88;;;8.98;;
8458;SDS011;4266;48.816;9.154;2022-07-22T06:40:41;11.05;;;10.02;;
8458;SDS011;4266;48.816;9.154;2022-07-22T06:43:06;9.65;;;8.75;;
8458;SDS011;4266;48.816;9.154;2022-07-22T06:45:32;9.75;;;8.95;;
8458;SDS011;4266;48.816;9.154;2022-07-22T06:47:58;10.27;;;9.30;;
8458;SDS011;4266;48.816;9.154;2022-07-22T06:50:23;9.93;;;9.00;;
8458;SDS011;4266;48.816;9.154;2022-07-22T06:52:49;8.95;;;8.15;;
8458;SDS011;4266;48.816;9.154;2022-07-22T06:55:14;9.13;;;8.43;;
8458;SDS011;4266;48.816;9.154;2022-07-22T06:57:40;10.32;;;8.63;;
8458;SDS011;4266;48.816;9.154;2022-07-22T07:00:07;9.82;;;9.05;;
8458;SDS011;4266;48.816;9.154;2022-07-22T07:02:34;11.40;;;8.43;;
8458;SDS011;4266;48.816;9.154;2022-07-22T07:05:00;8.85;;;8.07;;
8458;SDS011;4266;48.816;9.154;2022-07-22T07:07:26;8.27;;;7.45;;
8458;SDS011;4266;48.816;9.154;2022-07-22T07:09:51;8.73;;;7.75;;
8458;SDS011;4266;48.816;9.154;2022-07-22T07:12:17;9.30;;;8.55;;
8458;SDS011;4266;48.816;9.154;2022-07-22T07:14:43;9.93;;;9.05;;
8458;SDS011;4266;48.816;9.154;2022-07-22T07:17:09;8.38;;;7.65;;
8458;SDS011;4266;48.816;9.154;2022-07-22T07:19:35;12.68;;;8.73;;
8458;SDS011;4266;48.816;9.154;2022-07-22T07:22:00;9.70;;;9.00;;
8458;SDS011;4266;48.816;9.154;2022-07-22T07:24:26;8.63;;;7.93;;
8458;SDS011;4266;48.816;9.154;2022-07-22T07:26:52;9.48;;;8.60;;
8458;SDS011;4266;48.816;9.154;2022-07-22T07:29:18;10.77;;;9.77;;
8458;SDS011;4266;48.816;9.154;2022-07-22T07:31:44;9.55;;;8.75;;
8458;SDS011;4266;48.816;9.154;2022-07-22T07:34:10;9.68;;;8.60;;
8458;SDS011;4266;48.816;9.154;2022-07-22T07:36:35;9.63;;;8.70;;
8458;SDS011;4266;48.816;9.154;2022-07-22T07:39:01;8.95;;;7.90;;
8458;SDS011;4266;48.816;9.154;2022-07-22T07:41:27;10.02;;;9.13;;
8458;SDS011;4266;48.816;9.154;2022-07-22T07:43:52;10.10;;;9.07;;
8458;SDS011;4266;48.816;9.154;2022-07-22T07:46:18;9.65;;;8.73;;
8458;SDS011;4266;48.816;9.154;2022-07-22T07:48:44;9.95;;;8.88;;
8458;SDS011;4266;48.816;9.154;2022-07-22T07:51:10;10.10;;;8.98;;
8458;SDS011;4266;48.816;9.154;2022-07-22T07:53:36;10.60;;;9.70;;
8458;SDS011;4266;48.816;9.154;2022-07-22T07:56:01;9.15;;;8.45;;
8458;SDS011;4266;48.816;9.154;2022-07-22T07:58:27;9.00;;;8.25;;
8458;SDS011;4266;48.816;9.154;2022-07-22T08:00:53;9.95;;;9.15;;
8458;SDS011;4266;48.816;9.154;2022-07-22T08:03:18;10.27;;;9.30;;
8458;SDS011;4266;48.816;9.154;2022-07-22T08:05:44;10.05;;;8.82;;
8458;SDS011;4266;48.816;9.154;2022-07-22T08:08:10;9.70;;;8.77;;
8458;SDS011;4266;48.816;9.154;2022-07-22T08:10:35;8.95;;;7.97;;
8458;SDS011;4266;48.816;9.154;2022-07-22T08:13:01;9.85;;;8.95;;
8458;SDS011;4266;48.816;9.154;2022-07-22T08:15:27;9.27;;;8.38;;
8458;SDS011;4266;48.816;9.154;2022-07-22T08:17:52;10.27;;;8.45;;
8458;SDS011;4266;48.816;9.154;2022-07-22T08:20:18;9.77;;;9.02;;
8458;SDS011;4266;48.816;9.154;2022-07-22T08:22:43;10.02;;;9.30;;
8458;SDS011;4266;48.816;9.154;2022-07-22T08:25:09;10.85;;;9.75;;
8458;SDS011;4266;48.816;9.154;2022-07-22T08:27:35;9.80;;;8.90;;
8458;SDS011;4266;48.816;9.154;2022-07-22T08:30:00;10.57;;;9.48;;
8458;SDS011;4266;48.816;9.154;2022-07-22T08:32:26;11.60;;;9.88;;
8458;SDS011;4266;48.816;9.154;2022-07-22T08:34:51;9.63;;;8.63;;
8458;SDS011;4266;48.816;9.154;2022-07-22T08:37:17;9.52;;;8.73;;
8458;SDS011;4266;48.816;9.154;2022-07-22T08:39:43;8.52;;;7.72;;
8458;SDS011;4266;48.816;9.154;2022-07-22T08:42:08;12.07;;;8.52;;
8458;SDS011;4266;48.816;9.154;2022-07-22T08:44:34;10.75;;;9.80;;
8458;SDS011;4266;48.816;9.154;2022-07-22T08:47:00;9.70;;;8.80;;
8458;SDS011;4266;48.816;9.154;2022-07-22T08:49:26;11.02;;;8.65;;
8458;SDS011;4266;48.816;9.154;2022-07-22T08:51:51;9.82;;;8.93;;
8458;SDS011;4266;48.816;9.154;2022-07-22T08:54:17;8.95;;;8.15;;
8458;SDS011;4266;48.816;9.154;2022-07-22T08:56:46;9.73;;;8.82;;
8458;SDS011;4266;48.816;9.154;2022-07-22T08:59:11;9.52;;;8.75;;
8458;SDS011;4266;48.816;9.154;2022-07-22T09:01:37;8.52;;;7.82;;
8458;SDS011;4266;48.816;9.154;2022-07-22T09:04:03;9.30;;;7.72;;
8458;SDS011;4266;48.816;9.154;2022-07-22T09:06:29;10.40;;;8.43;;
8458;SDS011;4266;48.816;9.154;2022-07-22T09:08:55;9.52;;;7.70;;
8458;SDS011;4266;48.816;9.154;2022-07-22T09:11:22;8.57;;;7.87;;
8458;SDS011;4266;48.816;9.154;2022-07-22T09:13:47;10.45;;;7.00;;
8458;SDS011;4266;48.816;9.154;2022-07-22T09:16:13;12.77;;;7.80;;
8458;SDS011;4266;48.816;9.154;2022-07-22T09:18:44;9.90;;;7.75;;
8458;SDS011;4266;48.816;9.154;2022-07-22T09:21:11;8.60;;;7.70;;
8458;SDS011;4266;48.816;9.154;2022-07-22T09:23:39;8.10;;;7.18;;
8458;SDS011;4266;48.816;9.154;2022-07-22T09:26:04;9.07;;;8.23;;
8458;SDS011;4266;48.816;9.154;2022-07-22T09:28:30;7.80;;;7.10;;
8458;SDS011;4266;48.816;9.154;2022-07-22T09:30:56;8.15;;;7.30;;
8458;SDS011;4266;48.816;9.154;2022-07-22T09:33:22;7.40;;;6.72;;
8458;SDS011;4266;48.816;9.154;2022-07-22T09:35:47;9.05;;;8.25;;
8458;SDS011;4266;48.816;9.154;2022-07-22T09:38:14;8.15;;;7.43;;
8458;SDS011;4266;48.816;9.154;2022-07-22T09:40:39;8.63;;;7.93;;
8458;SDS011;4266;48.816;9.154;2022-07-22T09:43:05;8.05;;;7.25;;
8458;SDS011;4266;48.816;9.154;2022-07-22T09:45:30;8.27;;;7.62;;
8458;SDS011;4266;48.816;9.154;2022-07-22T09:47:56;7.93;;;7.20;;
8458;SDS011;4266;48.816;9.154;2022-07-22T09:50:22;9.85;;;7.80;;
8458;SDS011;4266;48.816;9.154;2022-07-22T09:52:48;7.70;;;7.07;;
8458;SDS011;4266;48.816;9.154;2022-07-22T09:55:14;10.38;;;7.28;;
8458;SDS011;4266;48.816;9.154;2022-07-22T09:57:39;9.30;;;7.28;;
8458;SDS011;4266;48.816;9.154;2022-07-22T10:00:05;7.07;;;6.47;;
8458;SDS011;4266;48.816;9.154;2022-07-22T10:02:32;8.30;;;7.50;;
8458;SDS011;4266;48.816;9.154;2022-07-22T10:04:57;7.93;;;7.32;;
8458;SDS011;4266;48.816;9.154;2022-07-22T10:07:23;8.30;;;7.20;;
8458;SDS011;4266;48.816;9.154;2022-07-22T10:09:49;7.15;;;6.45;;
8458;SDS011;4266;48.816;9.154;2022-07-22T10:12:15;8.07;;;7.37;;
8458;SDS011;4266;48.816;9.154;2022-07-22T10:14:41;8.05;;;7.35;;
8458;SDS011;4266;48.816;9.154;2022-07-22T10:17:06;8.05;;;7.35;;
8458;SDS011;4266;48.816;9.154;2022-07-22T10:19:32;10.90;;;8.25;;
8458;SDS011;4266;48.816;9.154;2022-07-22T10:21:58;8.63;;;7.75;;
8458;SDS011;4266;48.816;9.154;2022-07-22T10:24:23;8.38;;;7.68;;
8458;SDS011;4266;48.816;9.154;2022-07-22T10:26:50;7.55;;;6.90;;
8458;SDS011;4266;48.816;9.154;2022-07-22T10:31:49;7.72;;;7.07;;
8458;SDS011;4266;48.816;9.154;2022-07-22T10:34:15;7.60;;;6.87;;
8458;SDS011;4266;48.816;9.154;2022-07-22T10:36:40;6.82;;;6.20;;
8458;SDS011;4266;48.816;9.154;2022-07-22T10:39:14;7.80;;;7.20;;
8458;SDS011;4266;48.816;9.154;2022-07-22T10:41:40;7.43;;;6.93;;
8458;SDS011;4266;48.816;9.154;2022-07-22T10:44:05;8.15;;;7.55;;
8458;SDS011;4266;48.816;9.154;2022-07-22T10:49:08;6.95;;;6.40;;
8458;SDS011;4266;48.816;9.154;2022-07-22T10:51:34;8.15;;;7.10;;
8458;SDS011;4266;48.816;9.154;2022-07-22T10:54:00;7.87;;;7.28;;
8458;SDS011;4266;48.816;9.154;2022-07-22T10:56:28;8.07;;;6.95;;
8458;SDS011;4266;48.816;9.154;2022-07-22T10:58:55;7.47;;;6.93;;
8458;SDS011;4266;48.816;9.154;2022-07-22T11:01:22;7.72;;;7.05;;
8458;SDS011;4266;48.816;9.154;2022-07-22T11:03:49;7.22;;;6.57;;
8458;SDS011;4266;48.816;9.154;2022-07-22T11:06:16;7.55;;;6.85;;
8458;SDS011;4266;48.816;9.154;2022-07-22T11:08:42;7.43;;;6.55;;
8458;SDS011;4266;48.816;9.154;2022-07-22T11:11:07;6.72;;;6.22;;
8458;SDS011;4266;48.816;9.154;2022-07-22T11:13:34;7.10;;;6.60;;
8458;SDS011;4266;48.816;9.154;2022-07-22T11:18:43;7.80;;;7.03;;
8458;SDS011;4266;48.816;9.154;2022-07-22T11:21:09;8.75;;;6.95;;
8458;SDS011;4266;48.816;9.154;2022-07-22T11:23:39;6.93;;;6.40;;
8458;SDS011;4266;48.816;9.154;2022-07-22T11:26:01;8.30;;;7.37;;
8458;SDS011;4266;48.816;9.154;2022-07-22T11:28:27;7.65;;;6.93;;
8458;SDS011;4266;48.816;9.154;2022-07-22T11:33:29;7.62;;;6.95;;
8458;SDS011;4266;48.816;9.154;2022-07-22T11:36:02;7.20;;;6.60;;
8458;SDS011;4266;48.816;9.154;2022-07-22T11:38:38;7.12;;;6.35;;
8458;SDS011;4266;48.816;9.154;2022-07-22T11:40:53;7.12;;;6.62;;
8458;SDS011;4266;48.816;9.154;2022-07-22T11:43:18;7.10;;;6.50;;
8458;SDS011;4266;48.816;9.154;2022-07-22T11:48:20;7.68;;;6.97;;
8458;SDS011;4266;48.816;9.154;2022-07-22T11:50:46;7.47;;;6.68;;
8458;SDS011;4266;48.816;9.154;2022-07-22T11:53:12;8.07;;;6.70;;
8458;SDS011;4266;48.816;9.154;2022-07-22T11:55:37;7.10;;;6.40;;
8458;SDS011;4266;48.816;9.154;2022-07-22T11:58:03;6.97;;;6.37;;
8458;SDS011;4266;48.816;9.154;2022-07-22T12:00:29;6.28;;;5.78;;
8458;SDS011;4266;48.816;9.154;2022-07-22T12:02:55;7.00;;;6.40;;
8458;SDS011;4266;48.816;9.154;2022-07-22T12:05:21;6.95;;;6.43;;
8458;SDS011;4266;48.816;9.154;2022-07-22T12:07:46;7.03;;;6.30;;
8458;SDS011;4266;48.816;9.154;2022-07-22T12:10:12;10.77;;;7.00;;
8458;SDS011;4266;48.816;9.154;2022-07-22T12:12:39;7.18;;;6.60;;
8458;SDS011;4266;48.816;9.154;2022-07-22T12:15:04;9.25;;;6.85;;
8458;SDS011;4266;48.816;9.154;2022-07-22T12:17:31;7.50;;;6.80;;
8458;SDS011;4266;48.816;9.154;2022-07-22T12:20:08;7.15;;;6.65;;
8458;SDS011;4266;48.816;9.154;2022-07-22T12:22:23;8.25;;;6.60;;
8458;SDS011;4266;48.816;9.154;2022-07-22T12:27:25;6.62;;;6.12;;
8458;SDS011;4266;48.816;9.154;2022-07-22T12:29:51;6.68;;;6.07;;
8458;SDS011;4266;48.816;9.154;2022-07-22T12:32:25;7.32;;;6.50;;
8458;SDS011;4266;48.816;9.154;2022-07-22T12:35:01;6.85;;;6.25;;
8458;SDS011;4266;48.816;9.154;2022-07-22T12:37:31;8.73;;;6.20;;
8458;SDS011;4266;48.816;9.154;2022-07-22T12:40:04;7.03;;;6.32;;
8458;SDS011;4266;48.816;9.154;2022-07-22T12:42:33;7.22;;;6.53;;
8458;SDS011;4266;48.816;9.154;2022-07-22T12:45:01;6.82;;;6.20;;
8458;SDS011;4266;48.816;9.154;2022-07-22T12:52:40;7.65;;;6.95;;
8458;SDS011;4266;48.816;9.154;2022-07-22T12:55:06;6.12;;;5.60;;
8458;SDS011;4266;48.816;9.154;2022-07-22T12:57:32;7.15;;;6.45;;
8458;SDS011;4266;48.816;9.154;2022-07-22T12:59:57;7.30;;;5.85;;
8458;SDS011;4266;48.816;9.154;2022-07-22T13:02:24;7.30;;;5.60;;
8458;SDS011;4266;48.816;9.154;2022-07-22T13:04:50;6.70;;;5.97;;
8458;SDS011;4266;48.816;9.154;2022-07-22T13:07:16;6.40;;;5.90;;
8458;SDS011;4266;48.816;9.154;2022-07-22T13:09:42;7.12;;;6.53;;
8458;SDS011;4266;48.816;9.154;2022-07-22T13:12:07;7.55;;;6.85;;
8458;SDS011;4266;48.816;9.154;2022-07-22T13:14:33;6.82;;;6.25;;
8458;SDS011;4266;48.816;9.154;2022-07-22T13:16:59;6.87;;;6.28;;
8458;SDS011;4266;48.816;9.154;2022-07-22T13:19:26;6.47;;;6.00;;
8458;SDS011;4266;48.816;9.154;2022-07-22T13:21:51;6.97;;;6.37;;
8458;SDS011;4266;48.816;9.154;2022-07-22T13:24:18;6.78;;;6.28;;
8458;SDS011;4266;48.816;9.154;2022-07-22T13:26:43;6.72;;;6.15;;
8458;SDS011;4266;48.816;9.154;2022-07-22T13:29:09;6.80;;;6.12;;
8458;SDS011;4266;48.816;9.154;2022-07-22T13:31:35;6.80;;;6.30;;
8458;SDS011;4266;48.816;9.154;2022-07-22T13:34:01;6.35;;;5.75;;
8458;SDS011;4266;48.816;9.154;2022-07-22T13:36:27;7.90;;;6.45;;
8458;SDS011;4266;48.816;9.154;2022-07-22T13:38:52;6.57;;;6.00;;
8458;SDS011;4266;48.816;9.154;2022-07-22T13:41:18;5.87;;;5.47;;
8458;SDS011;4266;48.816;9.154;2022-07-22T13:43:44;6.45;;;5.95;;
8458;SDS011;4266;48.816;9.154;2022-07-22T13:46:10;8.10;;;6.05;;
8458;SDS011;4266;48.816;9.154;2022-07-22T13:48:36;6.12;;;5.62;;
8458;SDS011;4266;48.816;9.154;2022-07-22T13:51:03;6.93;;;6.45;;
8458;SDS011;4266;48.816;9.154;2022-07-22T13:53:29;5.93;;;5.53;;
8458;SDS011;4266;48.816;9.154;2022-07-22T13:55:54;6.10;;;5.60;;
8458;SDS011;4266;48.816;9.154;2022-07-22T13:58:21;6.65;;;5.97;;
8458;SDS011;4266;48.816;9.154;2022-07-22T14:00:46;6.32;;;5.82;;
8458;SDS011;4266;48.816;9.154;2022-07-22T14:03:13;7.20;;;5.53;;
8458;SDS011;4266;48.816;9.154;2022-07-22T14:05:38;5.85;;;5.45;;
8458;SDS011;4266;48.816;9.154;2022-07-22T14:08:04;5.57;;;5.18;;
8458;SDS011;4266;48.816;9.154;2022-07-22T14:10:30;6.12;;;5.40;;
8458;SDS011;4266;48.816;9.154;2022-07-22T14:12:56;6.22;;;5.62;;
8458;SDS011;4266;48.816;9.154;2022-07-22T14:15:22;6.00;;;5.40;;
8458;SDS011;4266;48.816;9.154;2022-07-22T14:17:47;6.70;;;6.10;;
8458;SDS011;4266;48.816;9.154;2022-07-22T14:20:13;6.28;;;5.70;;
8458;SDS011;4266;48.816;9.154;2022-07-22T14:22:38;6.53;;;6.03;;
8458;SDS011;4266;48.816;9.154;2022-07-22T14:25:04;6.03;;;5.62;;
8458;SDS011;4266;48.816;9.154;2022-07-22T14:27:30;7.28;;;6.25;;
8458;SDS011;4266;48.816;9.154;2022-07-22T14:29:58;6.28;;;5.68;;
8458;SDS011;4266;48.816;9.154;2022-07-22T14:32:24;7.10;;;6.18;;
8458;SDS011;4266;48.816;9.154;2022-07-22T14:34:50;5.87;;;5.47;;
8458;SDS011;4266;48.816;9.154;2022-07-22T14:37:15;6.78;;;5.50;;
8458;SDS011;4266;48.816;9.154;2022-07-22T14:39:41;5.97;;;5.47;;
8458;SDS011;4266;48.816;9.154;2022-07-22T14:42:06;6.37;;;5.85;;
8458;SDS011;4266;48.816;9.154;2022-07-22T14:44:33;5.60;;;5.20;;
8458;SDS011;4266;48.816;9.154;2022-07-22T14:46:59;6.20;;;5.70;;
8458;SDS011;4266;48.816;9.154;2022-07-22T14:49:24;6.97;;;6.32;;
8458;SDS011;4266;48.816;9.154;2022-07-22T14:51:50;6.22;;;5.62;;
8458;SDS011;4266;48.816;9.154;2022-07-22T14:54:15;6.45;;;5.87;;
8458;SDS011;4266;48.816;9.154;2022-07-22T14:56:42;6.37;;;5.87;;
8458;SDS011;4266;48.816;9.154;2022-07-22T14:59:07;6.20;;;5.70;;
8458;SDS011;4266;48.816;9.154;2022-07-22T15:01:33;6.50;;;6.00;;
8458;SDS011;4266;48.816;9.154;2022-07-22T15:03:59;5.85;;;5.20;;
8458;SDS011;4266;48.816;9.154;2022-07-22T15:06:24;5.22;;;4.82;;
8458;SDS011;4266;48.816;9.154;2022-07-22T15:08:50;8.60;;;5.65;;
8458;SDS011;4266;48.816;9.154;2022-07-22T15:11:16;6.25;;;5.80;;
8458;SDS011;4266;48.816;9.154;2022-07-22T15:13:42;5.95;;;5.55;;
8458;SDS011;4266;48.816;9.154;2022-07-22T15:16:08;6.20;;;5.43;;
8458;SDS011;4266;48.816;9.154;2022-07-22T15:18:33;6.20;;;5.60;;
8458;SDS011;4266;48.816;9.154;2022-07-22T15:20:59;5.85;;;5.37;;
8458;SDS011;4266;48.816;9.154;2022-07-22T15:23:25;6.60;;;6.00;;
8458;SDS011;4266;48.816;9.154;2022-07-22T15:25:55;6.68;;;6.07;;